Dades meteomassalio
Diari Summary for Gener 30, 2018 Units:  Both    English   Metric
« Previous Day
Next Day »
Diari Semanal Mensual Anual Personalitzat
  Maxima: Minima: Mijana:
Temperatura: TemperatureC °F /  -17.8 °C -1.7 °F /  -18.7 °C 4.2 °F /  -15.4 °C
Rosada: DewpointC °F /  -17.8 °C -2.7 °F /  -19.3 °C 1.3 °F /  -17.1 °C
Humitat: Humidity % 58 % 83 %
Velocitat del vent: WindSpeedKMH mph /  0 km/h - 1.1 mph /  1.8 km/h
Racha vent: WindSpeedGustKMH mph /  0 km/h - -
Vent:- - East
Pressio: PressurehPa in /  0 hPa 1030.7 in /  34899.5 hPa -
Pluja: 0.5 in /  12.7 mm    
Historical Graphs
 
 
Tabular Data for Gener 30, 2018
Time Temperature Dew Point Pressure Wind Wind Speed Wind Gust Humidity Rainfall Rate (Hourly) solar Conditions
TemperatureC °F /  -17.8 °C DewpointC °F /  -17.8 °C PressurehPa in /  0 hPa Calm     Humidity % HourlyPrecipMM in /  0 mm SolarRadiationWatts/m^2 W/m2 Conditions
00:04 1.7 °F /  -16.8 °C 0.5 °F /  -17.5 °C 1036.1 in /  35082.3 hPa Calm     92 % 0.0 in /  0 mm 0.0 W/m2 RA
00:09 1.1 °F /  -17.2 °C -0.1 °F /  -17.8 °C 1036.1 in /  35082.3 hPa Calm     92 % 0.0 in /  0 mm 0.0 W/m2 CLR
00:14 1.7 °F /  -16.8 °C 0.5 °F /  -17.5 °C 1036.1 in /  35082.3 hPa Calm     92 % 0.0 in /  0 mm 0.0 W/m2 RA
00:19 1.1 °F /  -17.2 °C -0.1 °F /  -17.8 °C 1036.1 in /  35082.3 hPa Calm     92 % 0.0 in /  0 mm 0.0 W/m2
00:24 1.1 °F /  -17.2 °C -0.1 °F /  -17.8 °C 1036.1 in /  35082.3 hPa Calm     92 % 0.0 in /  0 mm 0.0 W/m2 CLR
00:29 1.1 °F /  -17.2 °C -0.1 °F /  -17.8 °C 1036.1 in /  35082.3 hPa Calm     92 % 0.0 in /  0 mm 0.0 W/m2 CLR
00:34 0.6 °F /  -17.4 °C -0.6 °F /  -18.1 °C 1036.1 in /  35082.3 hPa Calm     92 % 0.0 in /  0 mm 0.0 W/m2 CLR
00:39 0.6 °F /  -17.4 °C -0.6 °F /  -18.1 °C 1035.8 in /  35072.2 hPa Calm     92 % 0.0 in /  0 mm 0.0 W/m2 CLR
00:44 0.6 °F /  -17.4 °C -0.6 °F /  -18.1 °C 1035.8 in /  35072.2 hPa Calm     92 % 0.0 in /  0 mm 0.0 W/m2 CLR
00:49 0.6 °F /  -17.4 °C -0.6 °F /  -18.1 °C 1036.1 in /  35082.3 hPa Calm     92 % 0.0 in /  0 mm 0.0 W/m2 CLR
00:54 1.1 °F /  -17.2 °C -0.1 °F /  -17.8 °C 1035.8 in /  35072.2 hPa Calm     92 % 0.0 in /  0 mm 0.0 W/m2 CLR
00:59 0.6 °F /  -17.4 °C -0.6 °F /  -18.1 °C 1036.1 in /  35082.3 hPa Calm     92 % 0.0 in /  0 mm 0.0 W/m2 CLR
01:04 0.6 °F /  -17.4 °C -0.6 °F /  -18.1 °C 1035.8 in /  35072.2 hPa Calm     92 % 0.3 in /  7.62 mm 0.0 W/m2 CLR
01:09 0.6 °F /  -17.4 °C -0.6 °F /  -18.1 °C 1035.8 in /  35072.2 hPa Calm     92 % 0.3 in /  7.62 mm 0.0 W/m2 CLR
01:14 0.6 °F /  -17.4 °C -0.6 °F /  -18.1 °C 1035.8 in /  35072.2 hPa Calm     92 % 0.0 in /  0 mm 0.0 W/m2 CLR
01:19 0.6 °F /  -17.4 °C -0.6 °F /  -18.1 °C 1035.8 in /  35072.2 hPa Calm     92 % 0.0 in /  0 mm 0.0 W/m2 CLR
01:24 0.6 °F /  -17.4 °C -0.6 °F /  -18.1 °C 1035.8 in /  35072.2 hPa Calm     92 % 0.0 in /  0 mm 0.0 W/m2 CLR
01:29 0.6 °F /  -17.4 °C -0.6 °F /  -18.1 °C 1035.8 in /  35072.2 hPa Calm     92 % 0.0 in /  0 mm 0.0 W/m2 CLR
01:34 0.6 °F /  -17.4 °C -0.6 °F /  -18.1 °C 1035.8 in /  35072.2 hPa Calm     92 % 0.0 in /  0 mm 0.0 W/m2 CLR
01:39 0.6 °F /  -17.4 °C -0.6 °F /  -18.1 °C 1035.8 in /  35072.2 hPa Calm     92 % 0.0 in /  0 mm 0.0 W/m2 CLR
01:44 0.6 °F /  -17.4 °C -0.6 °F /  -18.1 °C 1035.8 in /  35072.2 hPa Calm     92 % 0.0 in /  0 mm 0.0 W/m2 CLR
01:49 0.6 °F /  -17.4 °C -0.6 °F /  -18.1 °C 1035.8 in /  35072.2 hPa Calm     92 % 0.0 in /  0 mm 0.0 W/m2 CLR
01:54 0.6 °F /  -17.4 °C -0.6 °F /  -18.1 °C 1035.4 in /  35058.6 hPa Calm     92 % 0.0 in /  0 mm 0.0 W/m2 CLR
01:59 0.0 °F /  -17.8 °C -1.2 °F /  -18.4 °C 1035.8 in /  35072.2 hPa Calm     92 % 0.0 in /  0 mm 0.0 W/m2 CLR
02:04 0.0 °F /  -17.8 °C -1.2 °F /  -18.4 °C 1035.8 in /  35072.2 hPa Calm     92 % 0.0 in /  0 mm 0.0 W/m2 CLR
02:09 0.0 °F /  -17.8 °C -1.2 °F /  -18.4 °C 1035.4 in /  35058.6 hPa Calm     92 % 0.0 in /  0 mm 0.0 W/m2 CLR
02:14 0.6 °F /  -17.4 °C -0.6 °F /  -18.1 °C 1035.4 in /  35058.6 hPa Calm     92 % 0.0 in /  0 mm 0.0 W/m2 CLR
02:19 0.6 °F /  -17.4 °C -0.6 °F /  -18.1 °C 1035.4 in /  35058.6 hPa Calm     92 % 0.0 in /  0 mm 0.0 W/m2 CLR
02:24 0.6 °F /  -17.4 °C -0.6 °F /  -18.1 °C 1035.4 in /  35058.6 hPa Calm     92 % 0.0 in /  0 mm 0.0 W/m2 CLR
02:30 0.0 °F /  -17.8 °C -1.2 °F /  -18.4 °C 1035.4 in /  35058.6 hPa Calm     92 % 0.0 in /  0 mm 0.0 W/m2 CLR
02:35 0.6 °F /  -17.4 °C -0.6 °F /  -18.1 °C 1035.4 in /  35058.6 hPa Calm     92 % 0.0 in /  0 mm 0.0 W/m2 CLR
02:40 0.6 °F /  -17.4 °C -0.6 °F /  -18.1 °C 1035.4 in /  35058.6 hPa Calm     92 % 0.0 in /  0 mm 0.0 W/m2 CLR
02:45 0.0 °F /  -17.8 °C -1.2 °F /  -18.4 °C 1035.4 in /  35058.6 hPa Calm     92 % 0.0 in /  0 mm 0.0 W/m2 CLR
02:50 0.0 °F /  -17.8 °C -1.2 °F /  -18.4 °C 1035.4 in /  35058.6 hPa Calm     92 % 0.0 in /  0 mm 0.0 W/m2 CLR
02:55 0.0 °F /  -17.8 °C -1.0 °F /  -18.3 °C 1035.4 in /  35058.6 hPa Calm     93 % 0.0 in /  0 mm 0.0 W/m2 CLR
03:00 0.0 °F /  -17.8 °C -1.2 °F /  -18.4 °C 1035.4 in /  35058.6 hPa Calm     92 % 0.0 in /  0 mm 0.0 W/m2 CLR
03:05 0.0 °F /  -17.8 °C -1.2 °F /  -18.4 °C 1035.4 in /  35058.6 hPa Calm     92 % 0.0 in /  0 mm 0.0 W/m2 CLR
03:10 0.0 °F /  -17.8 °C -1.2 °F /  -18.4 °C 1035.4 in /  35058.6 hPa Calm     92 % 0.0 in /  0 mm 0.0 W/m2 CLR
03:15 0.0 °F /  -17.8 °C -1.2 °F /  -18.4 °C 1035.4 in /  35058.6 hPa Calm     92 % 0.0 in /  0 mm 0.0 W/m2 CLR
03:20 0.0 °F /  -17.8 °C -1.2 °F /  -18.4 °C 1035.4 in /  35058.6 hPa Calm     92 % 0.0 in /  0 mm 0.0 W/m2 CLR
03:25 0.0 °F /  -17.8 °C -1.2 °F /  -18.4 °C 1035.4 in /  35058.6 hPa Calm     92 % 0.0 in /  0 mm 0.0 W/m2 CLR
03:30 0.0 °F /  -17.8 °C -1.2 °F /  -18.4 °C 1035.4 in /  35058.6 hPa Calm     92 % 0.0 in /  0 mm 0.0 W/m2 CLR
03:35 0.0 °F /  -17.8 °C -1.2 °F /  -18.4 °C 1035.1 in /  35048.5 hPa Calm     92 % 0.0 in /  0 mm 0.0 W/m2 CLR
03:40 0.0 °F /  -17.8 °C -1.2 °F /  -18.4 °C 1035.1 in /  35048.5 hPa Calm     92 % 0.0 in /  0 mm 0.0 W/m2 CLR
03:45 0.0 °F /  -17.8 °C -1.2 °F /  -18.4 °C 1035.1 in /  35048.5 hPa Calm     92 % 0.0 in /  0 mm 0.0 W/m2 CLR
03:50 0.0 °F /  -17.8 °C -1.2 °F /  -18.4 °C 1035.1 in /  35048.5 hPa Calm     92 % 0.0 in /  0 mm 0.0 W/m2 CLR
03:55 0.0 °F /  -17.8 °C -1.2 °F /  -18.4 °C 1035.1 in /  35048.5 hPa Calm     92 % 0.0 in /  0 mm 0.0 W/m2 CLR
04:00 0.0 °F /  -17.8 °C -1.2 °F /  -18.4 °C 1034.8 in /  35038.3 hPa Calm     92 % 0.0 in /  0 mm 0.0 W/m2 CLR
04:05 0.0 °F /  -17.8 °C -1.0 °F /  -18.3 °C 1034.8 in /  35038.3 hPa Calm     93 % 0.0 in /  0 mm 0.0 W/m2 CLR
04:10 0.0 °F /  -17.8 °C -1.2 °F /  -18.4 °C 1034.8 in /  35038.3 hPa Calm     92 % 0.0 in /  0 mm 0.0 W/m2 CLR
04:15 0.0 °F /  -17.8 °C -1.2 °F /  -18.4 °C 1034.8 in /  35038.3 hPa Calm     92 % 0.0 in /  0 mm 0.0 W/m2 CLR
04:20 0.0 °F /  -17.8 °C -1.2 °F /  -18.4 °C 1034.8 in /  35038.3 hPa Calm     92 % 0.0 in /  0 mm 0.0 W/m2 CLR
04:25 -0.6 °F /  -18.1 °C -1.6 °F /  -18.7 °C 1034.8 in /  35038.3 hPa Calm     93 % 0.0 in /  0 mm 0.0 W/m2 CLR
04:30 -0.6 °F /  -18.1 °C -1.6 °F /  -18.7 °C 1034.8 in /  35038.3 hPa Calm     93 % 0.0 in /  0 mm 0.0 W/m2 CLR
04:35 -0.6 °F /  -18.1 °C -1.6 °F /  -18.7 °C 1034.8 in /  35038.3 hPa Calm     93 % 0.0 in /  0 mm 0.0 W/m2 CLR
04:40 0.0 °F /  -17.8 °C -1.0 °F /  -18.3 °C 1034.8 in /  35038.3 hPa Calm     93 % 0.0 in /  0 mm 0.0 W/m2 CLR
04:45 0.0 °F /  -17.8 °C -1.2 °F /  -18.4 °C 1034.8 in /  35038.3 hPa Calm     92 % 0.0 in /  0 mm 0.0 W/m2 CLR
04:50 -0.6 °F /  -18.1 °C -1.6 °F /  -18.7 °C 1034.8 in /  35038.3 hPa Calm     93 % 0.0 in /  0 mm 0.0 W/m2 CLR
04:55 -0.6 °F /  -18.1 °C -1.6 °F /  -18.7 °C 1034.4 in /  35024.8 hPa Calm     93 % 0.0 in /  0 mm 0.0 W/m2 CLR
05:00 -0.6 °F /  -18.1 °C -1.6 °F /  -18.7 °C 1034.4 in /  35024.8 hPa Calm     93 % 0.0 in /  0 mm 0.0 W/m2 CLR
05:05 -0.6 °F /  -18.1 °C -1.6 °F /  -18.7 °C 1034.4 in /  35024.8 hPa Calm     93 % 0.0 in /  0 mm 0.0 W/m2 CLR
05:10 -0.6 °F /  -18.1 °C -1.6 °F /  -18.7 °C 1034.4 in /  35024.8 hPa Calm     93 % 0.0 in /  0 mm 0.0 W/m2 CLR
05:15 -0.6 °F /  -18.1 °C -1.6 °F /  -18.7 °C 1034.4 in /  35024.8 hPa Calm     93 % 0.0 in /  0 mm 0.0 W/m2 CLR
05:16 -0.6 °F /  -18.1 °C -1.6 °F /  -18.7 °C 1034.4 in /  35024.8 hPa Calm     93 % 0.0 in /  0 mm 0.0 W/m2 CLR
05:21 -0.6 °F /  -18.1 °C -1.6 °F /  -18.7 °C 1034.8 in /  35038.3 hPa Calm     93 % 0.0 in /  0 mm 0.0 W/m2 CLR
05:26 -0.6 °F /  -18.1 °C -1.6 °F /  -18.7 °C 1034.8 in /  35038.3 hPa Calm     93 % 0.0 in /  0 mm 0.0 W/m2 CLR
05:31 -0.6 °F /  -18.1 °C -1.6 °F /  -18.7 °C 1034.8 in /  35038.3 hPa Calm     93 % 0.0 in /  0 mm 0.0 W/m2 CLR
05:36 -0.6 °F /  -18.1 °C -1.6 °F /  -18.7 °C 1034.8 in /  35038.3 hPa Calm     93 % 0.0 in /  0 mm 0.0 W/m2 CLR
05:41 -0.6 °F /  -18.1 °C -1.6 °F /  -18.7 °C 1034.8 in /  35038.3 hPa Calm     93 % 0.0 in /  0 mm 0.0 W/m2 CLR
05:46 -0.6 °F /  -18.1 °C -1.6 °F /  -18.7 °C 1034.4 in /  35024.8 hPa Calm     93 % 0.0 in /  0 mm 0.0 W/m2 CLR
05:51 -0.6 °F /  -18.1 °C -1.6 °F /  -18.7 °C 1034.8 in /  35038.3 hPa Calm     93 % 0.0 in /  0 mm 0.0 W/m2 CLR
05:56 -0.6 °F /  -18.1 °C -1.6 °F /  -18.7 °C 1034.8 in /  35038.3 hPa Calm     93 % 0.0 in /  0 mm 0.0 W/m2 CLR
06:01 -0.6 °F /  -18.1 °C -1.6 °F /  -18.7 °C 1034.8 in /  35038.3 hPa Calm     93 % 0.0 in /  0 mm 0.0 W/m2 CLR
06:06 -0.6 °F /  -18.1 °C -1.6 °F /  -18.7 °C 1034.8 in /  35038.3 hPa Calm     93 % 0.0 in /  0 mm 0.0 W/m2 CLR
06:11 -0.6 °F /  -18.1 °C -1.6 °F /  -18.7 °C 1034.8 in /  35038.3 hPa Calm     93 % 0.0 in /  0 mm 0.0 W/m2 CLR
06:16 -1.1 °F /  -18.4 °C -2.1 °F /  -18.9 °C 1034.8 in /  35038.3 hPa Calm     93 % 0.0 in /  0 mm 0.0 W/m2 CLR
06:21 -0.6 °F /  -18.1 °C -1.6 °F /  -18.7 °C 1034.8 in /  35038.3 hPa Calm     93 % 0.0 in /  0 mm 0.0 W/m2 CLR
06:26 -0.6 °F /  -18.1 °C -1.6 °F /  -18.7 °C 1034.8 in /  35038.3 hPa Calm     93 % 0.0 in /  0 mm 0.0 W/m2 CLR
06:31 -0.6 °F /  -18.1 °C -1.6 °F /  -18.7 °C 1034.4 in /  35024.8 hPa Calm     93 % 0.0 in /  0 mm 0.0 W/m2 CLR
06:36 -0.6 °F /  -18.1 °C -1.6 °F /  -18.7 °C 1034.8 in /  35038.3 hPa Calm     93 % 0.0 in /  0 mm 0.0 W/m2 CLR
06:41 -0.6 °F /  -18.1 °C -1.6 °F /  -18.7 °C 1034.8 in /  35038.3 hPa Calm     93 % 0.0 in /  0 mm 0.0 W/m2 CLR
06:46 -0.6 °F /  -18.1 °C -1.6 °F /  -18.7 °C 1034.8 in /  35038.3 hPa Calm     93 % 0.0 in /  0 mm 0.0 W/m2 CLR
06:51 -1.1 °F /  -18.4 °C -2.1 °F /  -18.9 °C 1034.8 in /  35038.3 hPa Calm     93 % 0.0 in /  0 mm 0.0 W/m2 CLR
06:56 -1.1 °F /  -18.4 °C -2.1 °F /  -18.9 °C 1034.8 in /  35038.3 hPa Calm     93 % 0.0 in /  0 mm 0.0 W/m2 CLR
07:01 -1.1 °F /  -18.4 °C -2.1 °F /  -18.9 °C 1034.8 in /  35038.3 hPa Calm     93 % 0.0 in /  0 mm 0.0 W/m2 CLR
07:06 -1.1 °F /  -18.4 °C -2.1 °F /  -18.9 °C 1034.8 in /  35038.3 hPa Calm     93 % 0.0 in /  0 mm 0.0 W/m2 CLR
07:11 -1.1 °F /  -18.4 °C -2.1 °F /  -18.9 °C 1034.8 in /  35038.3 hPa Calm     93 % 0.0 in /  0 mm 0.0 W/m2 CLR
07:16 -1.1 °F /  -18.4 °C -2.1 °F /  -18.9 °C 1034.8 in /  35038.3 hPa Calm     93 % 0.0 in /  0 mm 0.0 W/m2 CLR
07:21 -1.1 °F /  -18.4 °C -2.1 °F /  -18.9 °C 1034.8 in /  35038.3 hPa Calm     93 % 0.0 in /  0 mm 0.0 W/m2 CLR
07:26 -1.1 °F /  -18.4 °C -2.1 °F /  -18.9 °C 1034.8 in /  35038.3 hPa Calm     93 % 0.0 in /  0 mm 0.0 W/m2 CLR
07:31 -1.1 °F /  -18.4 °C -2.1 °F /  -18.9 °C 1034.8 in /  35038.3 hPa Calm     93 % 0.0 in /  0 mm 0.0 W/m2 CLR
07:36 -1.1 °F /  -18.4 °C -2.1 °F /  -18.9 °C 1034.8 in /  35038.3 hPa Calm     93 % 0.0 in /  0 mm 0.0 W/m2 CLR
07:41 -1.1 °F /  -18.4 °C -2.1 °F /  -18.9 °C 1034.8 in /  35038.3 hPa Calm     93 % 0.0 in /  0 mm 0.0 W/m2 CLR
07:46 -1.1 °F /  -18.4 °C -2.1 °F /  -18.9 °C 1034.8 in /  35038.3 hPa Calm     93 % 0.0 in /  0 mm 0.0 W/m2 CLR
07:51 -1.1 °F /  -18.4 °C -2.1 °F /  -18.9 °C 1035.1 in /  35048.5 hPa Calm     93 % 0.0 in /  0 mm 0.0 W/m2 CLR
07:56 -1.1 °F /  -18.4 °C -2.1 °F /  -18.9 °C 1035.1 in /  35048.5 hPa Calm     93 % 0.0 in /  0 mm 0.0 W/m2 CLR
08:01 -1.1 °F /  -18.4 °C -2.1 °F /  -18.9 °C 1034.8 in /  35038.3 hPa Calm     93 % 0.0 in /  0 mm 0.0 W/m2 CLR
08:06 -1.1 °F /  -18.4 °C -2.1 °F /  -18.9 °C 1034.8 in /  35038.3 hPa Calm     93 % 0.0 in /  0 mm 0.0 W/m2 OVC
08:11 -1.7 °F /  -18.7 °C -2.7 °F /  -19.3 °C 1035.1 in /  35048.5 hPa Calm     93 % 0.0 in /  0 mm 5.0 W/m2 OVC
08:16 -1.1 °F /  -18.4 °C -2.1 °F /  -18.9 °C 1034.8 in /  35038.3 hPa Calm     93 % 0.0 in /  0 mm 7.0 W/m2 BKN
08:21 -1.1 °F /  -18.4 °C -2.1 °F /  -18.9 °C 1034.8 in /  35038.3 hPa Calm     93 % 0.0 in /  0 mm 9.0 W/m2 BKN
08:26 -1.1 °F /  -18.4 °C -2.1 °F /  -18.9 °C 1034.8 in /  35038.3 hPa Calm     93 % 0.0 in /  0 mm 11.0 W/m2 BKN
08:31 -1.1 °F /  -18.4 °C -2.1 °F /  -18.9 °C 1034.8 in /  35038.3 hPa Calm     93 % 0.0 in /  0 mm 14.0 W/m2 BKN
08:36 -1.1 °F /  -18.4 °C -2.1 °F /  -18.9 °C 1034.8 in /  35038.3 hPa Calm     93 % 0.0 in /  0 mm 18.0 W/m2 BKN
08:41 -1.1 °F /  -18.4 °C -2.1 °F /  -18.9 °C 1034.8 in /  35038.3 hPa Calm     93 % 0.0 in /  0 mm 25.0 W/m2 BKN
08:46 -1.1 °F /  -18.4 °C -2.1 °F /  -18.9 °C 1034.8 in /  35038.3 hPa Calm     93 % 0.0 in /  0 mm 33.0 W/m2 BKN
08:51 -0.6 °F /  -18.1 °C -1.6 °F /  -18.7 °C 1034.8 in /  35038.3 hPa Calm     93 % 0.0 in /  0 mm 49.0 W/m2 SCT
08:56 -1.1 °F /  -18.4 °C -2.1 °F /  -18.9 °C 1034.8 in /  35038.3 hPa Calm     93 % 0.0 in /  0 mm 54.0 W/m2 SCT
09:01 -0.6 °F /  -18.1 °C -1.6 °F /  -18.7 °C 1034.8 in /  35038.3 hPa Calm     93 % 0.0 in /  0 mm 54.0 W/m2 SCT
09:06 -0.6 °F /  -18.1 °C -1.6 °F /  -18.7 °C 1034.8 in /  35038.3 hPa Calm     93 % 0.0 in /  0 mm 74.0 W/m2 FEW
09:11 -0.6 °F /  -18.1 °C -1.6 °F /  -18.7 °C 1035.1 in /  35048.5 hPa Calm     93 % 0.0 in /  0 mm 86.0 W/m2 FEW
09:16 -0.6 °F /  -18.1 °C -1.6 °F /  -18.7 °C 1035.1 in /  35048.5 hPa Calm     93 % 0.0 in /  0 mm 86.0 W/m2 FEW
09:21 0.0 °F /  -17.8 °C -1.0 °F /  -18.3 °C 1035.1 in /  35048.5 hPa Calm     93 % 0.0 in /  0 mm 111.0 W/m2 CLR
09:26 0.0 °F /  -17.8 °C -1.0 °F /  -18.3 °C 1034.8 in /  35038.3 hPa Calm     93 % 0.0 in /  0 mm 125.0 W/m2 CLR
09:31 0.6 °F /  -17.4 °C -0.4 °F /  -18 °C 1034.8 in /  35038.3 hPa Calm     93 % 0.0 in /  0 mm 142.0 W/m2 CLR
09:36 0.6 °F /  -17.4 °C -0.4 °F /  -18 °C 1035.1 in /  35048.5 hPa Calm     93 % 0.0 in /  0 mm 156.0 W/m2 CLR
09:41 1.1 °F /  -17.2 °C 0.1 °F /  -17.7 °C 1035.1 in /  35048.5 hPa Calm     93 % 0.0 in /  0 mm 171.0 W/m2 CLR
09:46 1.1 °F /  -17.2 °C 0.1 °F /  -17.7 °C 1035.1 in /  35048.5 hPa Calm     93 % 0.0 in /  0 mm 130.0 W/m2 CLR
09:51 1.1 °F /  -17.2 °C 0.1 °F /  -17.7 °C 1034.8 in /  35038.3 hPa Calm     93 % 0.0 in /  0 mm 199.0 W/m2 CLR
09:56 1.7 °F /  -16.8 °C 0.7 °F /  -17.4 °C 1034.8 in /  35038.3 hPa Calm     93 % 0.0 in /  0 mm 100.0 W/m2 CLR
10:01 1.7 °F /  -16.8 °C 0.7 °F /  -17.4 °C 1035.1 in /  35048.5 hPa Calm     93 % 0.0 in /  0 mm 227.0 W/m2 CLR
10:06 2.2 °F /  -16.6 °C 1.2 °F /  -17.1 °C 1035.1 in /  35048.5 hPa Calm     93 % 0.0 in /  0 mm 239.0 W/m2 CLR
10:12 2.2 °F /  -16.6 °C 1.2 °F /  -17.1 °C 1034.8 in /  35038.3 hPa Calm     93 % 0.0 in /  0 mm 253.0 W/m2 CLR
10:17 2.8 °F /  -16.2 °C 1.8 °F /  -16.8 °C 1035.1 in /  35048.5 hPa Calm     93 % 0.0 in /  0 mm 267.0 W/m2 CLR
10:22 2.8 °F /  -16.2 °C 1.6 °F /  -16.9 °C 1035.1 in /  35048.5 hPa Calm     92 % 0.0 in /  0 mm 278.0 W/m2 CLR
10:27 3.3 °F /  -15.9 °C 2.2 °F /  -16.6 °C 1034.8 in /  35038.3 hPa Calm     92 % 0.0 in /  0 mm 290.0 W/m2 CLR
10:32 3.3 °F /  -15.9 °C 2.0 °F /  -16.7 °C 1035.1 in /  35048.5 hPa Calm     91 % 0.0 in /  0 mm 304.0 W/m2 CLR
10:37 4.4 °F /  -15.3 °C 2.9 °F /  -16.2 °C 1035.1 in /  35048.5 hPa Calm     90 % 0.0 in /  0 mm 315.0 W/m2 CLR
10:42 5.0 °F /  -15 °C 3.3 °F /  -15.9 °C 1035.1 in /  35048.5 hPa Calm     89 % 0.0 in /  0 mm 327.0 W/m2 CLR
10:47 5.6 °F /  -14.7 °C 3.6 °F /  -15.8 °C 1034.8 in /  35038.3 hPa Calm     87 % 0.0 in /  0 mm 339.0 W/m2 CLR
10:52 5.6 °F /  -14.7 °C 3.4 °F /  -15.9 °C 1035.1 in /  35048.5 hPa Calm     86 % 0.0 in /  0 mm 359.0 W/m2 CLR
10:57 6.1 °F /  -14.4 °C 3.8 °F /  -15.7 °C 1034.8 in /  35038.3 hPa Calm     85 % 0.0 in /  0 mm 376.0 W/m2 CLR
11:02 6.1 °F /  -14.4 °C 3.4 °F /  -15.9 °C 1034.8 in /  35038.3 hPa Calm     83 % 0.0 in /  0 mm 388.0 W/m2 CLR
11:07 6.7 °F /  -14.1 °C 3.4 °F /  -15.9 °C 1034.8 in /  35038.3 hPa Calm     80 % 0.0 in /  0 mm 397.0 W/m2 CLR
11:12 6.7 °F /  -14.1 °C 3.1 °F /  -16.1 °C 1034.8 in /  35038.3 hPa Calm     78 % 0.0 in /  0 mm 408.0 W/m2 CLR
11:17 7.8 °F /  -13.4 °C 4.0 °F /  -15.6 °C 1034.8 in /  35038.3 hPa Calm     77 % 0.0 in /  0 mm 418.0 W/m2 CLR
11:22 7.8 °F /  -13.4 °C 4.0 °F /  -15.6 °C 1034.8 in /  35038.3 hPa Calm     77 % 0.0 in /  0 mm 425.0 W/m2 CLR
11:27 7.8 °F /  -13.4 °C 3.8 °F /  -15.7 °C 1034.8 in /  35038.3 hPa Calm     76 % 0.0 in /  0 mm 434.0 W/m2 CLR
11:32 8.3 °F /  -13.2 °C 4.3 °F /  -15.4 °C 1034.8 in /  35038.3 hPa Calm     76 % 0.0 in /  0 mm 441.0 W/m2 CLR
11:37 8.3 °F /  -13.2 °C 4.2 °F /  -15.4 °C 1034.8 in /  35038.3 hPa Calm     75 % 0.0 in /  0 mm 452.0 W/m2 CLR
11:42 8.9 °F /  -12.8 °C 4.7 °F /  -15.2 °C 1034.8 in /  35038.3 hPa Calm     75 % 0.0 in /  0 mm 459.0 W/m2 CLR
11:47 8.9 °F /  -12.8 °C 4.7 °F /  -15.2 °C 1034.8 in /  35038.3 hPa Calm     75 % 0.0 in /  0 mm 466.0 W/m2 CLR
11:52 9.4 °F /  -12.6 °C 5.1 °F /  -14.9 °C 1034.8 in /  35038.3 hPa East 5.6 mph /  9 km/h 5.6 mph /  9 km/h 74 % 0.0 in /  0 mm 473.0 W/m2 CLR
11:57 9.4 °F /  -12.6 °C 5.1 °F /  -14.9 °C 1034.4 in /  35024.8 hPa East 5.6 mph /  9 km/h 5.6 mph /  9 km/h 74 % 0.0 in /  0 mm 480.0 W/m2 CLR
12:02 9.4 °F /  -12.6 °C 5.1 °F /  -14.9 °C 1034.4 in /  35024.8 hPa East 7.4 mph /  11.9 km/h 7.4 mph /  11.9 km/h 74 % 0.0 in /  0 mm 485.0 W/m2 CLR
12:07 10.0 °F /  -12.2 °C 5.8 °F /  -14.6 °C 1034.8 in /  35038.3 hPa ESE 9.3 mph /  15 km/h 9.3 mph /  15 km/h 75 % 0.0 in /  0 mm 492.0 W/m2 CLR
12:12 10.0 °F /  -12.2 °C 5.2 °F /  -14.9 °C 1034.4 in /  35024.8 hPa East 7.4 mph /  11.9 km/h 7.4 mph /  11.9 km/h 72 % 0.0 in /  0 mm 497.0 W/m2 CLR
12:17 10.6 °F /  -11.9 °C 5.7 °F /  -14.6 °C 1034.4 in /  35024.8 hPa East 9.3 mph /  15 km/h 9.3 mph /  15 km/h 72 % 0.0 in /  0 mm 503.0 W/m2 CLR
12:22 10.0 °F /  -12.2 °C 5.2 °F /  -14.9 °C 1034.4 in /  35024.8 hPa East 7.4 mph /  11.9 km/h 7.4 mph /  11.9 km/h 72 % 0.0 in /  0 mm 510.0 W/m2 CLR
12:27 10.0 °F /  -12.2 °C 5.0 °F /  -15 °C 1034.4 in /  35024.8 hPa East 7.4 mph /  11.9 km/h 7.4 mph /  11.9 km/h 71 % 0.0 in /  0 mm 517.0 W/m2 CLR
12:32 10.6 °F /  -11.9 °C 5.5 °F /  -14.7 °C 1034.1 in /  35014.6 hPa East 3.7 mph /  6 km/h 3.7 mph /  6 km/h 71 % 0.0 in /  0 mm 526.0 W/m2 CLR
12:37 10.6 °F /  -11.9 °C 5.3 °F /  -14.8 °C 1034.1 in /  35014.6 hPa ESE 7.4 mph /  11.9 km/h 7.4 mph /  11.9 km/h 70 % 0.0 in /  0 mm 534.0 W/m2 CLR
12:42 10.0 °F /  -12.2 °C 4.6 °F /  -15.2 °C 1034.1 in /  35014.6 hPa Calm     69 % 0.0 in /  0 mm 315.0 W/m2 CLR
12:47 10.0 °F /  -12.2 °C 4.8 °F /  -15.1 °C 1034.1 in /  35014.6 hPa ESE 3.7 mph /  6 km/h 3.7 mph /  6 km/h 70 % 0.0 in /  0 mm 450.0 W/m2 CLR
12:52 10.6 °F /  -11.9 °C 5.3 °F /  -14.8 °C 1033.7 in /  35001.1 hPa ESE 3.7 mph /  6 km/h   70 % 0.0 in /  0 mm 446.0 W/m2 CLR
12:57 10.6 °F /  -11.9 °C 5.3 °F /  -14.8 °C 1033.7 in /  35001.1 hPa ESE 3.7 mph /  6 km/h 3.7 mph /  6 km/h 70 % 0.0 in /  0 mm 334.0 W/m2 CLR
13:02 11.1 °F /  -11.6 °C 5.4 °F /  -14.8 °C 1033.7 in /  35001.1 hPa ESE 5.6 mph /  9 km/h 5.6 mph /  9 km/h 68 % 0.0 in /  0 mm 376.0 W/m2 CLR
13:07 10.6 °F /  -11.9 °C 4.9 °F /  -15.1 °C 1033.4 in /  34990.9 hPa Calm     68 % 0.0 in /  0 mm 522.0 W/m2 CLR
13:12 11.1 °F /  -11.6 °C 5.4 °F /  -14.8 °C 1033.4 in /  34990.9 hPa Calm     68 % 0.0 in /  0 mm 582.0 W/m2 CLR
13:17 11.7 °F /  -11.3 °C 6.2 °F /  -14.3 °C 1033.4 in /  34990.9 hPa Calm     69 % 0.0 in /  0 mm 591.0 W/m2 CLR
13:22 12.2 °F /  -11 °C 6.5 °F /  -14.2 °C 1033.1 in /  34980.8 hPa Calm     68 % 0.0 in /  0 mm 594.0 W/m2 CLR
13:27 12.2 °F /  -11 °C 6.3 °F /  -14.3 °C 1033.1 in /  34980.8 hPa Calm     67 % 0.0 in /  0 mm 596.0 W/m2 CLR
13:32 12.2 °F /  -11 °C 5.8 °F /  -14.6 °C 1032.7 in /  34967.2 hPa Calm     65 % 0.0 in /  0 mm 547.0 W/m2 CLR
13:37 12.2 °F /  -11 °C 5.8 °F /  -14.6 °C 1032.7 in /  34967.2 hPa Calm     65 % 0.0 in /  0 mm 519.0 W/m2 CLR
13:42 12.2 °F /  -11 °C 5.8 °F /  -14.6 °C 1032.7 in /  34967.2 hPa ESE 1.9 mph /  3.1 km/h 1.9 mph /  3.1 km/h 65 % 0.0 in /  0 mm 559.0 W/m2 CLR
13:48 12.8 °F /  -10.7 °C 5.7 °F /  -14.6 °C 1032.7 in /  34967.2 hPa ESE 5.6 mph /  9 km/h 5.6 mph /  9 km/h 62 % 0.0 in /  0 mm 587.0 W/m2 CLR
13:53 13.3 °F /  -10.4 °C 6.2 °F /  -14.3 °C 1032.7 in /  34967.2 hPa ESE 1.6 mph /  2.6 km/h 1.6 mph /  2.6 km/h 62 % 0.0 in /  0 mm 587.0 W/m2 CLR
13:58 13.3 °F /  -10.4 °C 6.7 °F /  -14.1 °C 1032.7 in /  34967.2 hPa ESE 6.4 mph /  10.3 km/h 6.4 mph /  10.3 km/h 64 % 0.0 in /  0 mm 564.0 W/m2 CLR
14:03 12.8 °F /  -10.7 °C 5.7 °F /  -14.6 °C 1032.4 in /  34957.1 hPa ESE 11.1 mph /  17.9 km/h 11.1 mph /  17.9 km/h 62 % 0.0 in /  0 mm 575.0 W/m2 CLR
14:08 12.8 °F /  -10.7 °C 6.1 °F /  -14.4 °C 1032.4 in /  34957.1 hPa ESE 12.9 mph /  20.8 km/h 12.9 mph /  20.8 km/h 64 % 0.0 in /  0 mm 573.0 W/m2 CLR
14:13 12.8 °F /  -10.7 °C 6.3 °F /  -14.3 °C 1032.4 in /  34957.1 hPa East 13.0 mph /  20.9 km/h 13.0 mph /  20.9 km/h 65 % 0.0 in /  0 mm 570.0 W/m2 CLR
14:18 12.8 °F /  -10.7 °C 6.1 °F /  -14.4 °C 1032.4 in /  34957.1 hPa East 9.3 mph /  15 km/h 9.3 mph /  15 km/h 64 % 0.0 in /  0 mm 566.0 W/m2 CLR
14:23 12.8 °F /  -10.7 °C 6.1 °F /  -14.4 °C 1032.1 in /  34946.9 hPa SE 9.3 mph /  15 km/h 9.3 mph /  15 km/h 64 % 0.0 in /  0 mm 561.0 W/m2 CLR
14:28 12.8 °F /  -10.7 °C 5.9 °F /  -14.5 °C 1032.1 in /  34946.9 hPa SE 7.4 mph /  11.9 km/h 7.4 mph /  11.9 km/h 63 % 0.0 in /  0 mm 555.0 W/m2 CLR
14:33 12.8 °F /  -10.7 °C 5.9 °F /  -14.5 °C 1032.1 in /  34946.9 hPa East 14.8 mph /  23.8 km/h 14.8 mph /  23.8 km/h 63 % 0.0 in /  0 mm 545.0 W/m2 CLR
14:38 12.8 °F /  -10.7 °C 5.7 °F /  -14.6 °C 1032.1 in /  34946.9 hPa SE 5.6 mph /  9 km/h 5.6 mph /  9 km/h 62 % 0.0 in /  0 mm 531.0 W/m2 CLR
14:43 12.8 °F /  -10.7 °C 5.2 °F /  -14.9 °C 1032.1 in /  34946.9 hPa ENE 5.6 mph /  9 km/h 5.6 mph /  9 km/h 60 % 0.0 in /  0 mm 510.0 W/m2 CLR
14:48 13.3 °F /  -10.4 °C 5.7 °F /  -14.6 °C 1031.7 in /  34933.4 hPa ENE 5.6 mph /  9 km/h 5.6 mph /  9 km/h 60 % 0.0 in /  0 mm 492.0 W/m2 CLR
14:53 13.3 °F /  -10.4 °C 5.7 °F /  -14.6 °C 1031.7 in /  34933.4 hPa ENE 3.7 mph /  6 km/h 3.7 mph /  6 km/h 60 % 0.0 in /  0 mm 476.0 W/m2 CLR
14:58 13.3 °F /  -10.4 °C 5.9 °F /  -14.5 °C 1031.7 in /  34933.4 hPa Calm     61 % 0.0 in /  0 mm 461.0 W/m2 CLR
15:03 13.3 °F /  -10.4 °C 5.5 °F /  -14.7 °C 1031.7 in /  34933.4 hPa ESE 7.4 mph /  11.9 km/h 7.4 mph /  11.9 km/h 59 % 0.0 in /  0 mm 445.0 W/m2 CLR
15:08 12.8 °F /  -10.7 °C 4.7 °F /  -15.2 °C 1031.7 in /  34933.4 hPa ESE 7.4 mph /  11.9 km/h 7.4 mph /  11.9 km/h 58 % 0.0 in /  0 mm 431.0 W/m2 CLR
15:13 13.3 °F /  -10.4 °C 5.5 °F /  -14.7 °C 1031.7 in /  34933.4 hPa East 4.8 mph /  7.7 km/h 4.8 mph /  7.7 km/h 59 % 0.0 in /  0 mm 420.0 W/m2 CLR
15:18 13.3 °F /  -10.4 °C 5.7 °F /  -14.6 °C 1031.7 in /  34933.4 hPa East 8.0 mph /  12.9 km/h 8.0 mph /  12.9 km/h 60 % 0.0 in /  0 mm 411.0 W/m2 CLR
15:23 12.8 °F /  -10.7 °C 5.2 °F /  -14.9 °C 1031.7 in /  34933.4 hPa East 3.7 mph /  6 km/h 3.7 mph /  6 km/h 60 % 0.0 in /  0 mm 397.0 W/m2 CLR
15:28 13.3 °F /  -10.4 °C 5.7 °F /  -14.6 °C 1031.7 in /  34933.4 hPa ENE 13.0 mph /  20.9 km/h 13.0 mph /  20.9 km/h 60 % 0.0 in /  0 mm 387.0 W/m2 CLR
15:33 12.8 °F /  -10.7 °C 5.2 °F /  -14.9 °C 1031.7 in /  34933.4 hPa ENE 9.3 mph /  15 km/h 9.3 mph /  15 km/h 60 % 0.0 in /  0 mm 376.0 W/m2 CLR
15:38 12.8 °F /  -10.7 °C 5.4 °F /  -14.8 °C 1031.7 in /  34933.4 hPa ENE 5.6 mph /  9 km/h 5.6 mph /  9 km/h 61 % 0.0 in /  0 mm 367.0 W/m2 CLR
15:43 13.3 °F /  -10.4 °C 5.9 °F /  -14.5 °C 1031.7 in /  34933.4 hPa NE 5.6 mph /  9 km/h 5.6 mph /  9 km/h 61 % 0.0 in /  0 mm 353.0 W/m2 CLR
15:48 13.3 °F /  -10.4 °C 5.9 °F /  -14.5 °C 1031.7 in /  34933.4 hPa ENE 5.6 mph /  9 km/h 5.6 mph /  9 km/h 61 % 0.0 in /  0 mm 343.0 W/m2 CLR
15:53 13.3 °F /  -10.4 °C 5.9 °F /  -14.5 °C 1031.4 in /  34923.2 hPa East 5.6 mph /  9 km/h 5.6 mph /  9 km/h 61 % 0.0 in /  0 mm 330.0 W/m2 CLR
15:58 13.3 °F /  -10.4 °C 5.5 °F /  -14.7 °C 1031.4 in /  34923.2 hPa ENE 5.6 mph /  9 km/h 5.6 mph /  9 km/h 59 % 0.0 in /  0 mm 318.0 W/m2 CLR
16:03 12.8 °F /  -10.7 °C 5.2 °F /  -14.9 °C 1031.4 in /  34923.2 hPa NE 5.6 mph /  9 km/h 5.6 mph /  9 km/h 60 % 0.0 in /  0 mm 309.0 W/m2 CLR
16:08 12.8 °F /  -10.7 °C 5.4 °F /  -14.8 °C 1031.4 in /  34923.2 hPa ENE 6.4 mph /  10.3 km/h 6.4 mph /  10.3 km/h 61 % 0.0 in /  0 mm 294.0 W/m2 CLR
16:13 12.8 °F /  -10.7 °C 5.2 °F /  -14.9 °C 1031.4 in /  34923.2 hPa East 3.7 mph /  6 km/h 3.7 mph /  6 km/h 60 % 0.0 in /  0 mm 281.0 W/m2 CLR
16:18 12.8 °F /  -10.7 °C 5.2 °F /  -14.9 °C 1031.4 in /  34923.2 hPa ENE 3.7 mph /  6 km/h 3.7 mph /  6 km/h 60 % 0.0 in /  0 mm 267.0 W/m2 CLR
16:23 12.8 °F /  -10.7 °C 5.4 °F /  -14.8 °C 1031.4 in /  34923.2 hPa Calm     61 % 0.0 in /  0 mm 253.0 W/m2 CLR
16:28 12.8 °F /  -10.7 °C 5.2 °F /  -14.9 °C 1031.4 in /  34923.2 hPa ENE 6.4 mph /  10.3 km/h 6.4 mph /  10.3 km/h 60 % 0.0 in /  0 mm 236.0 W/m2 CLR
16:33 12.8 °F /  -10.7 °C 5.2 °F /  -14.9 °C 1031.4 in /  34923.2 hPa ENE 5.6 mph /  9 km/h 5.6 mph /  9 km/h 60 % 0.0 in /  0 mm 220.0 W/m2 CLR
16:38 12.8 °F /  -10.7 °C 5.7 °F /  -14.6 °C 1031.4 in /  34923.2 hPa Calm     62 % 0.0 in /  0 mm 204.0 W/m2 CLR
16:43 12.8 °F /  -10.7 °C 5.4 °F /  -14.8 °C 1031.0 in /  34909.7 hPa ENE 4.8 mph /  7.7 km/h 4.8 mph /  7.7 km/h 61 % 0.0 in /  0 mm 188.0 W/m2 CLR
16:48 12.8 °F /  -10.7 °C 5.4 °F /  -14.8 °C 1031.0 in /  34909.7 hPa NE 5.6 mph /  9 km/h 5.6 mph /  9 km/h 61 % 0.0 in /  0 mm 171.0 W/m2 CLR
16:53 12.2 °F /  -11 °C 5.4 °F /  -14.8 °C 1031.0 in /  34909.7 hPa NE 3.2 mph /  5.1 km/h 3.2 mph /  5.1 km/h 63 % 0.0 in /  0 mm 155.0 W/m2 CLR
16:58 12.2 °F /  -11 °C 5.2 °F /  -14.9 °C 1031.0 in /  34909.7 hPa Calm     62 % 0.0 in /  0 mm 139.0 W/m2 CLR
17:03 12.2 °F /  -11 °C 5.2 °F /  -14.9 °C 1031.0 in /  34909.7 hPa Calm     62 % 0.0 in /  0 mm 125.0 W/m2 CLR
17:08 11.7 °F /  -11.3 °C 4.8 °F /  -15.1 °C 1031.0 in /  34909.7 hPa Calm     63 % 0.0 in /  0 mm 113.0 W/m2 CLR
17:13 11.7 °F /  -11.3 °C 4.8 °F /  -15.1 °C 1031.0 in /  34909.7 hPa NE 1.6 mph /  2.6 km/h 1.6 mph /  2.6 km/h 63 % 0.0 in /  0 mm 97.0 W/m2 CLR
17:18 11.7 °F /  -11.3 °C 5.1 °F /  -14.9 °C 1030.7 in /  34899.5 hPa Calm     64 % 0.0 in /  0 mm 81.0 W/m2 CLR
17:23 11.1 °F /  -11.6 °C 4.8 °F /  -15.1 °C 1030.7 in /  34899.5 hPa Calm     65 % 0.0 in /  0 mm 70.0 W/m2 FEW
17:28 11.1 °F /  -11.6 °C 4.6 °F /  -15.2 °C 1030.7 in /  34899.5 hPa Calm     64 % 0.0 in /  0 mm 56.0 W/m2 SCT
17:33 10.6 °F /  -11.9 °C 4.2 °F /  -15.4 °C 1030.7 in /  34899.5 hPa Calm     65 % 0.0 in /  0 mm 47.0 W/m2 SCT
17:38 10.6 °F /  -11.9 °C 4.2 °F /  -15.4 °C 1030.7 in /  34899.5 hPa Calm     65 % 0.0 in /  0 mm 37.0 W/m2 BKN
17:43 10.0 °F /  -12.2 °C 3.9 °F /  -15.6 °C 1030.7 in /  34899.5 hPa Calm     66 % 0.0 in /  0 mm 28.0 W/m2 BKN
17:48 9.4 °F /  -12.6 °C 3.4 °F /  -15.9 °C 1030.7 in /  34899.5 hPa Calm     66 % 0.0 in /  0 mm 21.0 W/m2 BKN
17:53 9.4 °F /  -12.6 °C 3.8 °F /  -15.7 °C 1030.7 in /  34899.5 hPa Calm     68 % 0.0 in /  0 mm 16.0 W/m2 BKN
17:58 8.9 °F /  -12.8 °C 3.3 °F /  -15.9 °C 1030.7 in /  34899.5 hPa Calm     68 % 0.0 in /  0 mm 14.0 W/m2 BKN
18:03 8.3 °F /  -13.2 °C 2.8 °F /  -16.2 °C 1030.7 in /  34899.5 hPa Calm     68 % 0.0 in /  0 mm 11.0 W/m2 BKN
18:08 7.8 °F /  -13.4 °C 2.4 °F /  -16.4 °C 1030.7 in /  34899.5 hPa Calm     69 % 0.0 in /  0 mm 7.0 W/m2 BKN
18:13 7.8 °F /  -13.4 °C 2.7 °F /  -16.3 °C 1030.7 in /  34899.5 hPa Calm     70 % 0.0 in /  0 mm 5.0 W/m2 OVC
18:18 7.2 °F /  -13.8 °C 2.1 °F /  -16.6 °C 1030.7 in /  34899.5 hPa Calm     70 % 0.0 in /  0 mm 0.0 W/m2 OVC
18:23 7.2 °F /  -13.8 °C 2.1 °F /  -16.6 °C 1030.7 in /  34899.5 hPa Calm     70 % 0.0 in /  0 mm 0.0 W/m2 CLR
18:28 6.7 °F /  -14.1 °C 1.8 °F /  -16.8 °C 1030.7 in /  34899.5 hPa Calm     71 % 0.0 in /  0 mm 0.0 W/m2 CLR
18:33 6.7 °F /  -14.1 °C 2.2 °F /  -16.6 °C 1030.7 in /  34899.5 hPa Calm     73 % 0.0 in /  0 mm 0.0 W/m2 CLR
18:38 7.2 °F /  -13.8 °C 2.9 °F /  -16.2 °C 1030.7 in /  34899.5 hPa Calm     74 % 0.0 in /  0 mm 0.0 W/m2 CLR
18:43 7.2 °F /  -13.8 °C 2.9 °F /  -16.2 °C 1030.7 in /  34899.5 hPa Calm     74 % 0.0 in /  0 mm 0.0 W/m2 CLR
18:48 6.7 °F /  -14.1 °C 2.7 °F /  -16.3 °C 1030.7 in /  34899.5 hPa Calm     76 % 0.0 in /  0 mm 0.0 W/m2 CLR
18:53 6.7 °F /  -14.1 °C 2.7 °F /  -16.3 °C 1030.7 in /  34899.5 hPa Calm     76 % 0.0 in /  0 mm 0.0 W/m2 CLR
18:58 6.7 °F /  -14.1 °C 2.9 °F /  -16.2 °C 1030.7 in /  34899.5 hPa Calm     77 % 0.0 in /  0 mm 0.0 W/m2 CLR
19:03 6.1 °F /  -14.4 °C 2.6 °F /  -16.3 °C 1030.7 in /  34899.5 hPa Calm     78 % 0.0 in /  0 mm 0.0 W/m2 CLR
19:08 6.1 °F /  -14.4 °C 2.7 °F /  -16.3 °C 1030.7 in /  34899.5 hPa Calm     79 % 0.0 in /  0 mm 0.0 W/m2 CLR
19:13 6.1 °F /  -14.4 °C 2.9 °F /  -16.2 °C 1030.7 in /  34899.5 hPa Calm     80 % 0.0 in /  0 mm 0.0 W/m2 CLR
19:18 5.6 °F /  -14.7 °C 2.6 °F /  -16.3 °C 1031.0 in /  34909.7 hPa Calm     81 % 0.0 in /  0 mm 0.0 W/m2 CLR
19:23 5.6 °F /  -14.7 °C 2.7 °F /  -16.3 °C 1031.0 in /  34909.7 hPa Calm     82 % 0.0 in /  0 mm 0.0 W/m2 CLR
19:28 5.0 °F /  -15 °C 2.3 °F /  -16.5 °C 1031.0 in /  34909.7 hPa Calm     83 % 0.0 in /  0 mm 0.0 W/m2 CLR
19:34 5.0 °F /  -15 °C 2.5 °F /  -16.4 °C 1031.0 in /  34909.7 hPa Calm     84 % 0.0 in /  0 mm 0.0 W/m2 CLR
19:39 5.0 °F /  -15 °C 2.3 °F /  -16.5 °C 1031.0 in /  34909.7 hPa Calm     83 % 0.0 in /  0 mm 0.0 W/m2 CLR
19:44 4.4 °F /  -15.3 °C 2.0 °F /  -16.7 °C 1031.4 in /  34923.2 hPa Calm     84 % 0.0 in /  0 mm 0.0 W/m2 CLR
19:49 4.4 °F /  -15.3 °C 2.0 °F /  -16.7 °C 1031.4 in /  34923.2 hPa Calm     84 % 0.0 in /  0 mm 0.0 W/m2 CLR
19:54 3.9 °F /  -15.6 °C 1.6 °F /  -16.9 °C 1031.4 in /  34923.2 hPa Calm     85 % 0.0 in /  0 mm 0.0 W/m2 CLR
19:59 3.9 °F /  -15.6 °C 1.8 °F /  -16.8 °C 1031.4 in /  34923.2 hPa Calm     86 % 0.0 in /  0 mm 0.0 W/m2 CLR
20:04 3.9 °F /  -15.6 °C 1.8 °F /  -16.8 °C 1031.4 in /  34923.2 hPa Calm     86 % 0.0 in /  0 mm 0.0 W/m2 CLR
20:09 3.9 °F /  -15.6 °C 1.8 °F /  -16.8 °C 1031.4 in /  34923.2 hPa Calm     86 % 0.0 in /  0 mm 0.0 W/m2 CLR
20:14 3.9 °F /  -15.6 °C 1.9 °F /  -16.7 °C 1031.7 in /  34933.4 hPa Calm     87 % 0.0 in /  0 mm 0.0 W/m2 CLR
20:19 3.3 °F /  -15.9 °C 1.4 °F /  -17 °C 1031.4 in /  34923.2 hPa Calm     87 % 0.0 in /  0 mm 0.0 W/m2 CLR
20:24 3.3 °F /  -15.9 °C 1.4 °F /  -17 °C 1031.4 in /  34923.2 hPa Calm     87 % 0.0 in /  0 mm 0.0 W/m2 CLR
20:29 3.3 °F /  -15.9 °C 1.4 °F /  -17 °C 1031.4 in /  34923.2 hPa Calm     87 % 0.0 in /  0 mm 0.0 W/m2 CLR
20:34 3.3 °F /  -15.9 °C 1.4 °F /  -17 °C 1031.7 in /  34933.4 hPa Calm     87 % 0.0 in /  0 mm 0.0 W/m2 CLR
20:39 2.8 °F /  -16.2 °C 0.8 °F /  -17.3 °C 1031.7 in /  34933.4 hPa Calm     87 % 0.0 in /  0 mm 0.0 W/m2 CLR
20:44 2.8 °F /  -16.2 °C 1.0 °F /  -17.2 °C 1031.7 in /  34933.4 hPa Calm     88 % 0.0 in /  0 mm 0.0 W/m2 CLR
20:49 2.2 °F /  -16.6 °C 0.4 °F /  -17.6 °C 1031.7 in /  34933.4 hPa Calm     88 % 0.0 in /  0 mm 0.0 W/m2 CLR
20:54 2.2 °F /  -16.6 °C 0.4 °F /  -17.6 °C 1031.7 in /  34933.4 hPa Calm     88 % 0.0 in /  0 mm 0.0 W/m2 CLR
20:59 2.2 °F /  -16.6 °C 0.4 °F /  -17.6 °C 1031.7 in /  34933.4 hPa Calm     88 % 0.0 in /  0 mm 0.0 W/m2 CLR
21:04 2.2 °F /  -16.6 °C 0.6 °F /  -17.4 °C 1031.7 in /  34933.4 hPa Calm     89 % 0.0 in /  0 mm 0.0 W/m2 CLR
21:09 2.8 °F /  -16.2 °C 1.2 °F /  -17.1 °C 1031.7 in /  34933.4 hPa Calm     89 % 0.0 in /  0 mm 0.0 W/m2 CLR
21:14 2.8 °F /  -16.2 °C 1.2 °F /  -17.1 °C 1031.7 in /  34933.4 hPa Calm     89 % 0.0 in /  0 mm 0.0 W/m2 CLR
21:19 2.2 °F /  -16.6 °C 0.6 °F /  -17.4 °C 1032.1 in /  34946.9 hPa Calm     89 % 0.0 in /  0 mm 0.0 W/m2 CLR
21:24 2.2 °F /  -16.6 °C 0.6 °F /  -17.4 °C 1031.7 in /  34933.4 hPa Calm     89 % 0.0 in /  0 mm 0.0 W/m2 CLR
21:29 1.7 °F /  -16.8 °C 0.1 °F /  -17.7 °C 1031.7 in /  34933.4 hPa Calm     89 % 0.0 in /  0 mm 0.0 W/m2 CLR
21:34 1.7 °F /  -16.8 °C 0.1 °F /  -17.7 °C 1032.1 in /  34946.9 hPa Calm     89 % 0.0 in /  0 mm 0.0 W/m2 CLR
21:39 1.7 °F /  -16.8 °C 0.1 °F /  -17.7 °C 1031.7 in /  34933.4 hPa Calm     89 % 0.0 in /  0 mm 0.0 W/m2 CLR
21:44 1.7 °F /  -16.8 °C 0.1 °F /  -17.7 °C 1032.1 in /  34946.9 hPa Calm     89 % 0.0 in /  0 mm 0.0 W/m2 CLR
21:49 1.1 °F /  -17.2 °C -0.5 °F /  -18.1 °C 1031.7 in /  34933.4 hPa Calm     89 % 0.3 in /  7.62 mm 0.0 W/m2 RA
21:54 1.1 °F /  -17.2 °C -0.5 °F /  -18.1 °C 1031.7 in /  34933.4 hPa Calm     89 % 0.3 in /  7.62 mm 0.0 W/m2 CLR
21:59 1.7 °F /  -16.8 °C 0.2 °F /  -17.7 °C 1031.7 in /  34933.4 hPa Calm     90 % 0.3 in /  7.62 mm 0.0 W/m2 CLR
22:04 1.7 °F /  -16.8 °C 0.2 °F /  -17.7 °C 1031.7 in /  34933.4 hPa Calm     90 % 0.3 in /  7.62 mm 0.0 W/m2 CLR
22:09 2.2 °F /  -16.6 °C 0.8 °F /  -17.3 °C 1031.7 in /  34933.4 hPa Calm     90 % 0.3 in /  7.62 mm 0.0 W/m2 CLR
22:14 1.7 °F /  -16.8 °C 0.2 °F /  -17.7 °C 1031.7 in /  34933.4 hPa Calm     90 % 0.3 in /  7.62 mm 0.0 W/m2 CLR
22:19 1.7 °F /  -16.8 °C 0.2 °F /  -17.7 °C 1031.7 in /  34933.4 hPa Calm     90 % 0.3 in /  7.62 mm 0.0 W/m2 CLR
22:24 1.7 °F /  -16.8 °C 0.2 °F /  -17.7 °C 1031.7 in /  34933.4 hPa Calm     90 % 0.3 in /  7.62 mm 0.0 W/m2 CLR
22:29 1.7 °F /  -16.8 °C 0.1 °F /  -17.7 °C 1031.7 in /  34933.4 hPa Calm     89 % 0.3 in /  7.62 mm 0.0 W/m2 CLR
22:34 1.1 °F /  -17.2 °C -0.3 °F /  -17.9 °C 1031.7 in /  34933.4 hPa Calm     90 % 0.3 in /  7.62 mm 0.0 W/m2 CLR
22:39 1.1 °F /  -17.2 °C -0.3 °F /  -17.9 °C 1031.4 in /  34923.2 hPa Calm     90 % 0.3 in /  7.62 mm 0.0 W/m2 CLR
22:44 1.1 °F /  -17.2 °C -0.3 °F /  -17.9 °C 1031.4 in /  34923.2 hPa Calm     90 % 0.3 in /  7.62 mm 0.0 W/m2 CLR
22:49 1.1 °F /  -17.2 °C -0.3 °F /  -17.9 °C 1031.4 in /  34923.2 hPa Calm     90 % 0.0 in /  0 mm 0.0 W/m2 CLR
22:54 1.1 °F /  -17.2 °C -0.3 °F /  -17.9 °C 1031.7 in /  34933.4 hPa Calm     90 % 0.0 in /  0 mm 0.0 W/m2 CLR
23:00 1.1 °F /  -17.2 °C -0.3 °F /  -17.9 °C 1031.4 in /  34923.2 hPa Calm     90 % 0.0 in /  0 mm 0.0 W/m2 CLR
23:05 1.1 °F /  -17.2 °C -0.3 °F /  -17.9 °C 1031.7 in /  34933.4 hPa Calm     90 % 0.0 in /  0 mm 0.0 W/m2 CLR
23:10 1.1 °F /  -17.2 °C -0.2 °F /  -17.9 °C 1031.4 in /  34923.2 hPa Calm     91 % 0.0 in /  0 mm 0.0 W/m2 CLR
23:15 1.1 °F /  -17.2 °C -0.3 °F /  -17.9 °C 1031.4 in /  34923.2 hPa Calm     90 % 0.0 in /  0 mm 0.0 W/m2 CLR
23:20 1.1 °F /  -17.2 °C -0.3 °F /  -17.9 °C 1031.7 in /  34933.4 hPa Calm     90 % 0.0 in /  0 mm 0.0 W/m2 CLR
23:25 1.1 °F /  -17.2 °C -0.3 °F /  -17.9 °C 1031.4 in /  34923.2 hPa Calm     90 % 0.0 in /  0 mm 0.0 W/m2 CLR
23:30 0.6 °F /  -17.4 °C -0.7 °F /  -18.2 °C 1031.4 in /  34923.2 hPa Calm     91 % 0.0 in /  0 mm 0.0 W/m2 CLR
23:35 0.6 °F /  -17.4 °C -0.7 °F /  -18.2 °C 1031.4 in /  34923.2 hPa Calm     91 % 0.0 in /  0 mm 0.0 W/m2 CLR
23:40 0.6 °F /  -17.4 °C -0.7 °F /  -18.2 °C 1031.4 in /  34923.2 hPa Calm     91 % 0.0 in /  0 mm 0.0 W/m2 CLR
23:45 0.6 °F /  -17.4 °C -0.7 °F /  -18.2 °C 1031.4 in /  34923.2 hPa Calm     91 % 0.0 in /  0 mm 0.0 W/m2 CLR
23:50 0.6 °F /  -17.4 °C -0.7 °F /  -18.2 °C 1031.4 in /  34923.2 hPa Calm     91 % 0.0 in /  0 mm 0.0 W/m2 CLR
23:55 0.6 °F /  -17.4 °C -0.7 °F /  -18.2 °C 1031.4 in /  34923.2 hPa Calm     91 % 0.0 in /  0 mm 0.0 W/m2 CLR
Lo Temps de Massalio
Compliments of Weather Underground - 1.25 mb